Fishhead, Alabama
Current Conditions -  °F | °C
As of 8:53 AM on Saturday 20 Dec 2014 (Local Time) from KANB Reporting Station
Overcast Overcast  
Wind Chill: 43°   Ceiling: 900
Heat Index: 43°   Visibility: 9mi
Dew Point: 39°   Wind: 3mph
Humidity: 86%   Direction: 60°ENE
Pressure: 30.23"   Gusts: NA
Location:  33.4483°N, 85.6826°W
Report Text: KANB 201453Z AUTO 06003KT 9SM BKN009 OVC021 06/04 A3023 RMK AO2 SLP244 60001 T00610039 53012
Loading
Personal Weather Stations






























Interactive Weather Map New forecast layout! Learn more

10-Day Weather Forecast

Advertisements
Track Severe Weather on mobile